地図

経路データ

SID SEASON NUMBER BASIN SUBBASIN NAME ISO_TIME NATURE LAT LON WMO_WIND WMO_PRES WMO_AGENCY TRACK_TYPE DIST2LAND LANDFALL IFLAG USA_AGENCY USA_ATCF_ID USA_LAT USA_LON USA_RECORD USA_STATUS USA_WIND USA_PRES USA_SSHS USA_R34_NE USA_R34_SE USA_R34_SW USA_R34_NW USA_R50_NE USA_R50_SE USA_R50_SW USA_R50_NW USA_R64_NE USA_R64_SE USA_R64_SW USA_R64_NW USA_POCI USA_ROCI USA_RMW USA_EYE TOKYO_LAT TOKYO_LON TOKYO_GRADE TOKYO_WIND TOKYO_PRES TOKYO_R50_DIR TOKYO_R50_LONG TOKYO_R50_SHORT TOKYO_R30_DIR TOKYO_R30_LONG TOKYO_R30_SHORT TOKYO_LAND CMA_LAT CMA_LON CMA_CAT CMA_WIND CMA_PRES HKO_LAT HKO_LON HKO_CAT HKO_WIND HKO_PRES NEWDELHI_LAT NEWDELHI_LON NEWDELHI_GRADE NEWDELHI_WIND NEWDELHI_PRES NEWDELHI_CI NEWDELHI_DP NEWDELHI_POCI REUNION_LAT REUNION_LON REUNION_TYPE REUNION_WIND REUNION_PRES REUNION_TNUM REUNION_CI REUNION_RMW REUNION_R34_NE REUNION_R34_SE REUNION_R34_SW REUNION_R34_NW REUNION_R50_NE REUNION_R50_SE REUNION_R50_SW REUNION_R50_NW REUNION_R64_NE REUNION_R64_SE REUNION_R64_SW REUNION_R64_NW BOM_LAT BOM_LON BOM_TYPE BOM_WIND BOM_PRES BOM_TNUM BOM_CI BOM_RMW BOM_R34_NE BOM_R34_SE BOM_R34_SW BOM_R34_NW BOM_R50_NE BOM_R50_SE BOM_R50_SW BOM_R50_NW BOM_R64_NE BOM_R64_SE BOM_R64_SW BOM_R64_NW BOM_ROCI BOM_POCI BOM_EYE BOM_POS_METHOD BOM_PRES_METHOD NADI_LAT NADI_LON NADI_CAT NADI_WIND NADI_PRES WELLINGTON_LAT WELLINGTON_LON WELLINGTON_WIND WELLINGTON_PRES DS824_LAT DS824_LON DS824_STAGE DS824_WIND DS824_PRES TD9636_LAT TD9636_LON TD9636_STAGE TD9636_WIND TD9636_PRES TD9635_LAT TD9635_LON TD9635_WIND TD9635_PRES TD9635_ROCI NEUMANN_LAT NEUMANN_LON NEUMANN_CLASS NEUMANN_WIND NEUMANN_PRES MLC_LAT MLC_LON MLC_CLASS MLC_WIND MLC_PRES USA_GUST BOM_GUST BOM_GUST_PER REUNION_GUST REUNION_GUST_PER USA_SEAHGT USA_SEARAD_NE USA_SEARAD_SE USA_SEARAD_SW USA_SEARAD_NW STORM_SPEED STORM_DIR
1926186N22091 1926 23 NI BB NOT_NAMED 1926-07-05 00:00:00 TS 22.2000 91.1000 main 30 30 _________O____ -1 22.2000 91.1000 TC 34 2 28
1926186N22091 1926 23 NI BB NOT_NAMED 1926-07-05 03:00:00 TS 22.2700 91.1367 main 30 30 _________PO___ -1 22.3050 91.1550 TC 36 22.2000 91.1000 2 2 25
1926186N22091 1926 23 NI BB NOT_NAMED 1926-07-05 06:00:00 TS 22.3520 91.1781 main 30 30 _________OP___ -1 22.4000 91.2000 TC 39 22.2799 91.1452 2 2 21
1926186N22091 1926 23 NI BB NOT_NAMED 1926-07-05 09:00:00 TS 22.4348 91.2053 main 30 23 _________PP___ -1 22.4850 91.2225 TC 42 22.3679 91.1824 2 2 8
1926186N22091 1926 23 NI BB NOT_NAMED 1926-07-05 12:00:00 TS 22.5360 91.2017 main 23 10 _________OP___ -1 22.6000 91.2000 TC 45 22.4719 91.2034 2 3 351
1926186N22091 1926 23 NI BB NOT_NAMED 1926-07-05 15:00:00 TS 22.7000 91.1650 main 10 0 _________PO___ -1 22.8000 91.1300 TC 45 22.6000 91.2000 3 4 341
1926186N22091 1926 23 NI BB NOT_NAMED 1926-07-05 18:00:00 TS 22.8777 91.0807 main 0 0 _________OP___ -1 23.0000 91.0000 TC 45 22.7553 91.1613 3 4 330
1926186N22091 1926 23 NI BB NOT_NAMED 1926-07-05 21:00:00 TS 23.0181 90.9625 main 0 0 _________PP___ -1 23.1148 90.8599 TC 45 22.9214 91.0651 3 4 310
1926186N22091 1926 23 NI BB NOT_NAMED 1926-07-06 00:00:00 TS 23.1384 90.7432 main 0 0 _________OP___ -1 23.2000 90.6000 TC 45 23.0768 90.8864 3 6 294
1926186N22091 1926 23 NI BB NOT_NAMED 1926-07-06 03:00:00 TS 23.2613 90.3764 main 0 0 _________PO___ -1 23.3226 90.1528 TC 45 23.2000 90.6000 3 8 284
1926186N22091 1926 23 NI BB NOT_NAMED 1926-07-06 06:00:00 TS 23.3433 89.8774 main 0 0 _________OP___ -1 23.4000 89.6000 TC 45 23.2866 90.1547 3 10 276
1926186N22091 1926 23 NI BB NOT_NAMED 1926-07-06 09:00:00 TS 23.3573 89.3189 main 0 0 _________PP___ -1 23.3802 89.0273 TC 45 23.3344 89.6105 3 10 269
1926186N22091 1926 23 NI BB NOT_NAMED 1926-07-06 12:00:00 TS 23.3199 88.7680 main 0 0 _________OP___ -1 23.3000 88.5000 TC 45 23.3398 89.0359 3 9 264
1926186N22091 1926 23 NI BB NOT_NAMED 1926-07-06 15:00:00 TS 23.2573 88.3101 main 0 0 _________PO___ -1 23.2147 88.1201 TC 45 23.3000 88.5000 3 7 256
1926186N22091 1926 23 NI BB NOT_NAMED 1926-07-06 18:00:00 TS 23.1468 88.0145 main 0 0 _________OP___ -1 23.1000 87.8000 TC 45 23.1936 88.2290 3 6 242
1926186N22091 1926 23 NI BB NOT_NAMED 1926-07-06 21:00:00 TS 22.9958 87.7782 main 0 0 _________PP___ -1 22.9410 87.5700 TC 45 23.0507 87.9864 3 7 244
1926186N22091 1926 23 NI BB NOT_NAMED 1926-07-07 00:00:00 TS 22.8539 87.3753 main 0 0 _________OP___ -1 22.8000 87.1000 TC 45 22.9078 87.6507 3 11 258
1926186N22091 1926 23 NI BB NOT_NAMED 1926-07-07 03:00:00 TS 22.7606 86.5848 main 0 0 _________PO___ -1 22.7211 86.0696 TC 41 22.8000 87.1000 3 17 265
1926186N22091 1926 23 NI BB NOT_NAMED 1926-07-07 06:00:00 TS 22.7155 85.4869 main 0 0 _________OP___ -1 22.7000 84.8000 TC 37 22.7311 86.1739 3 21 269
1926186N22091 1926 23 NI BB NOT_NAMED 1926-07-07 09:00:00 TS 22.7095 84.3395 main 0 0 _________PP___ -1 22.7192 83.6499 TC 33 22.6999 85.0290 3 22 271
1926186N22091 1926 23 NI BB NOT_NAMED 1926-07-07 12:00:00 TS 22.7590 83.1349 main 0 0 _________OP___ -1 22.8000 82.5000 TC 30 22.7180 83.7699 3 22 274
1926186N22091 1926 23 NI BB NOT_NAMED 1926-07-07 15:00:00 TS 22.8559 81.9211 main 0 0 _________PO___ -1 22.9118 81.3421 TC 30 22.8000 82.5000 1 21 277
1926186N22091 1926 23 NI BB NOT_NAMED 1926-07-07 18:00:00 TS 23.0181 80.8288 main 0 0 _________OP___ -1 23.1000 80.2000 TC 30 22.9567 81.3004 1 21 281
1926186N22091 1926 23 NI BB NOT_NAMED 1926-07-07 21:00:00 TS 23.2547 79.7365 main 0 0 _________PP___ -1 23.3764 79.0913 TC 30 23.1736 80.1666 1 20 284
1926186N22091 1926 23 NI BB NOT_NAMED 1926-07-08 00:00:00 TS 23.5193 78.7161 main 0 0 _________OP___ -1 23.7000 78.0000 TC 30 23.4289 79.0742 1 17 286
1926186N22091 1926 23 NI AS NOT_NAMED 1926-07-08 03:00:00 NR 23.7000 78.0000 main 0 __________O___ -1 TC 23.7000 78.0000 1 14 285

IBTrACS Databaseについて

本データベースは、米国NOAAが公開する1842年以降の世界の熱帯低気圧のベストトラックデータアーカイブInternational Best Track Archive for Climate Stewardship (IBTrACS)を、ウェブで閲覧しやすい形式に変換したものです。

最終更新日:2021-10-21